createdAt,value
2019-04-21T00:01:24.321Z,15.30
2019-04-21T00:05:49.900Z,15.10
2019-04-21T00:13:42.589Z,15.00
2019-04-21T00:17:35.051Z,15.30
2019-04-21T00:21:43.328Z,14.70
2019-04-21T00:25:52.570Z,14.70
2019-04-21T00:30:04.514Z,15.00
2019-04-21T00:33:48.099Z,15.00
2019-04-21T00:38:08.303Z,14.90
2019-04-21T00:42:11.298Z,14.50
2019-04-21T00:46:04.869Z,14.70
2019-04-21T00:50:18.645Z,14.60
2019-04-21T00:54:51.955Z,14.70
2019-04-21T00:58:39.589Z,14.50
2019-04-21T01:02:52.906Z,14.50
2019-04-21T01:06:47.947Z,14.40
2019-04-21T01:10:43.947Z,14.60
2019-04-21T01:14:55.378Z,14.50
2019-04-21T01:18:55.254Z,14.50
2019-04-21T01:22:37.504Z,13.80
2019-04-21T01:26:49.505Z,14.00
2019-04-21T01:31:03.426Z,13.90
2019-04-21T01:35:02.669Z,13.90
2019-04-21T01:39:13.490Z,13.90
2019-04-21T01:43:09.775Z,13.80
2019-04-21T01:47:11.833Z,13.80
2019-04-21T01:51:12.933Z,13.50
2019-04-21T01:55:27.793Z,13.60
2019-04-21T01:59:18.503Z,13.50
2019-04-21T02:03:47.019Z,13.20
2019-04-21T02:07:34.251Z,13.60
2019-04-21T02:11:43.260Z,13.70
2019-04-21T02:15:46.472Z,13.30
2019-04-21T02:19:37.499Z,12.60
2019-04-21T02:23:54.581Z,13.10
2019-04-21T02:27:52.373Z,13.20
2019-04-21T02:32:14.430Z,13.40
2019-04-21T02:36:27.458Z,13.30
2019-04-21T02:40:14.615Z,13.30
2019-04-21T02:44:23.403Z,12.50
2019-04-21T02:48:28.244Z,12.50
2019-04-21T02:52:23.794Z,12.50
2019-04-21T02:56:24.744Z,12.90
2019-04-21T03:12:38.130Z,12.50
2019-04-21T03:20:52.974Z,11.90
2019-04-21T03:28:54.537Z,12.60
2019-04-21T03:37:07.659Z,12.50
2019-04-21T03:41:05.118Z,11.70
2019-04-21T03:49:19.198Z,12.50
2019-04-21T03:53:09.672Z,12.30
2019-04-21T03:57:46.360Z,12.10
2019-04-21T04:01:22.031Z,12.40
2019-04-21T04:06:02.055Z,12.10
2019-04-21T04:09:52.379Z,11.70
2019-04-21T04:14:20.344Z,11.90
2019-04-21T04:17:56.427Z,12.40
2019-04-21T04:22:09.204Z,11.90
2019-04-21T04:25:59.653Z,12.20
2019-04-21T04:30:07.642Z,12.00
2019-04-21T04:38:20.157Z,12.20
2019-04-21T04:42:45.845Z,12.30
2019-04-21T04:46:35.366Z,12.20
2019-04-21T04:50:45.312Z,12.30
2019-04-21T04:54:47.599Z,12.50
2019-04-21T04:59:10.779Z,12.40
2019-04-21T05:02:41.637Z,12.60
2019-04-21T05:10:57.368Z,12.70
2019-04-21T05:14:53.330Z,12.70
2019-04-21T05:19:02.284Z,13.00
2019-04-21T05:22:54.471Z,13.10
2019-04-21T05:26:48.088Z,13.30
2019-04-21T05:31:09.067Z,13.60
2019-04-21T05:35:10.463Z,13.70
2019-04-21T05:39:14.618Z,14.00
2019-04-21T05:43:25.895Z,14.10
2019-04-21T05:51:25.319Z,15.00
2019-04-21T05:55:42.679Z,15.50
2019-04-21T05:59:32.647Z,15.80
2019-04-21T06:03:44.763Z,16.20
2019-04-21T06:07:41.520Z,16.70
2019-04-21T06:11:45.779Z,17.00
2019-04-21T06:15:54.701Z,17.20
2019-04-21T06:23:49.981Z,18.10
2019-04-21T06:27:59.975Z,18.50
2019-04-21T06:36:23.957Z,19.40
2019-04-21T06:44:13.228Z,20.30
2019-04-21T06:48:20.760Z,19.30
2019-04-21T06:52:44.775Z,18.70
2019-04-21T06:56:27.152Z,18.70
2019-04-21T07:00:21.095Z,18.80
2019-04-21T07:12:32.295Z,18.10
2019-04-21T07:16:41.560Z,18.30
2019-04-21T07:20:38.017Z,17.30
2019-04-21T07:25:00.196Z,17.40
2019-04-21T07:28:49.894Z,18.50
2019-04-21T07:32:49.836Z,18.30
2019-04-21T07:40:48.471Z,18.80
2019-04-21T07:44:50.846Z,19.40
2019-04-21T07:49:01.694Z,20.20
2019-04-21T07:53:25.126Z,21.10
2019-04-21T07:57:15.543Z,21.10
2019-04-21T08:01:28.840Z,22.20
2019-04-21T08:05:28.116Z,21.80
2019-04-21T08:09:26.156Z,22.70
2019-04-21T08:13:40.081Z,21.70
2019-04-21T08:17:36.505Z,23.50
2019-04-21T08:21:43.332Z,22.00
2019-04-21T08:25:48.582Z,23.00
2019-04-21T08:29:47.665Z,24.90
2019-04-21T08:33:55.659Z,23.30
2019-04-21T08:37:48.093Z,22.80
2019-04-21T08:42:01.958Z,24.20
2019-04-21T08:46:13.024Z,23.40
2019-04-21T08:50:00.333Z,23.20
2019-04-21T08:58:30.593Z,22.20
2019-04-21T09:02:35.264Z,23.80
2019-04-21T09:06:52.574Z,23.30
2019-04-21T09:10:35.609Z,24.60
2019-04-21T09:14:45.386Z,24.40
2019-04-21T09:18:38.061Z,22.90
2019-04-21T09:22:44.269Z,22.90
2019-04-21T09:26:48.093Z,24.80
2019-04-21T09:30:43.390Z,22.90
2019-04-21T09:34:43.825Z,21.80
2019-04-21T09:38:50.720Z,23.60
2019-04-21T09:43:04.798Z,26.10
2019-04-21T09:47:05.127Z,25.10
2019-04-21T09:51:06.543Z,24.10
2019-04-21T09:55:13.910Z,23.30
2019-04-21T09:59:18.029Z,23.20
2019-04-21T10:03:16.244Z,24.50
2019-04-21T10:07:26.402Z,25.70
2019-04-21T10:11:21.080Z,26.80
2019-04-21T10:15:25.000Z,25.50
2019-04-21T10:19:27.451Z,26.50
2019-04-21T10:23:29.375Z,25.90
2019-04-21T10:27:31.525Z,26.00
2019-04-21T10:31:32.584Z,25.90
2019-04-21T10:35:33.556Z,24.80
2019-04-21T10:39:35.697Z,25.60
2019-04-21T10:43:37.486Z,26.40
2019-04-21T10:47:40.936Z,25.70
2019-04-21T10:51:43.287Z,26.20
2019-04-21T10:56:01.545Z,26.80
2019-04-21T10:59:50.745Z,27.60
2019-04-21T11:03:55.178Z,27.40
2019-04-21T11:08:11.164Z,27.00
2019-04-21T11:11:59.934Z,28.20
2019-04-21T11:16:01.397Z,27.50
2019-04-21T11:20:04.631Z,28.20
2019-04-21T11:24:06.073Z,28.40
2019-04-21T11:28:07.314Z,27.30
2019-04-21T11:32:09.225Z,27.50
2019-04-21T11:36:11.158Z,28.70
2019-04-21T11:40:16.290Z,27.70
2019-04-21T11:44:16.319Z,26.10
2019-04-21T11:48:26.202Z,27.70
2019-04-21T11:52:27.313Z,26.90
2019-04-21T11:56:28.466Z,27.60
2019-04-21T12:00:29.570Z,29.10
2019-04-21T12:04:31.685Z,28.10
2019-04-21T12:08:39.285Z,27.80
2019-04-21T12:12:37.121Z,27.40
2019-04-21T12:16:39.147Z,27.40
2019-04-21T12:20:40.229Z,27.20
2019-04-21T12:24:41.347Z,27.40
2019-04-21T12:28:43.757Z,29.80
2019-04-21T12:32:46.815Z,29.90
2019-04-21T12:36:48.722Z,31.00
2019-04-21T12:40:50.732Z,30.90
2019-04-21T12:44:52.245Z,31.30
2019-04-21T12:48:53.830Z,30.30
2019-04-21T12:52:55.850Z,31.70
2019-04-21T12:56:56.899Z,31.50
2019-04-21T13:00:58.913Z,30.80
2019-04-21T13:04:59.970Z,33.30
2019-04-21T13:09:05.284Z,31.40
2019-04-21T13:13:03.858Z,31.90
2019-04-21T13:17:05.622Z,32.10
2019-04-21T13:21:07.233Z,34.00
2019-04-21T13:25:09.687Z,34.60
2019-04-21T13:29:12.181Z,34.50
2019-04-21T13:33:13.591Z,35.40
2019-04-21T13:37:15.283Z,32.50
2019-04-21T13:41:32.602Z,32.30
2019-04-21T13:45:24.096Z,32.10
2019-04-21T13:49:25.360Z,32.20
2019-04-21T13:53:27.109Z,32.90
2019-04-21T13:57:30.381Z,32.10
2019-04-21T14:01:31.835Z,31.10
2019-04-21T14:05:32.955Z,30.20
2019-04-21T14:09:40.227Z,31.50
2019-04-21T14:13:36.654Z,32.70
2019-04-21T14:17:39.125Z,31.70
2019-04-21T14:21:41.258Z,33.00
2019-04-21T14:25:43.828Z,34.60
2019-04-21T14:29:45.935Z,33.90
2019-04-21T14:33:47.944Z,32.40
2019-04-21T14:37:49.050Z,33.50
2019-04-21T14:41:50.559Z,32.40
2019-04-21T14:45:54.722Z,31.80
2019-04-21T14:50:11.329Z,29.50
2019-04-21T14:54:33.123Z,30.50
2019-04-21T14:58:35.059Z,32.40
2019-04-21T15:02:36.244Z,33.50
2019-04-21T15:06:37.324Z,32.50
2019-04-21T15:10:39.002Z,32.40
2019-04-21T15:14:40.322Z,32.70
2019-04-21T15:18:42.155Z,32.00
2019-04-21T15:22:44.198Z,32.40
2019-04-21T15:26:46.459Z,30.30
2019-04-21T15:30:47.942Z,27.70
2019-04-21T15:34:49.898Z,28.50
2019-04-21T15:38:51.955Z,29.40
2019-04-21T15:42:54.596Z,29.60
2019-04-21T15:46:57.646Z,29.00
2019-04-21T15:50:59.650Z,28.40
2019-04-21T15:55:10.603Z,29.00
2019-04-21T15:59:19.863Z,29.30
2019-04-21T16:03:20.910Z,29.30
2019-04-21T16:07:22.328Z,29.10
2019-04-21T16:11:24.045Z,28.60
2019-04-21T16:15:26.279Z,29.00
2019-04-21T16:19:29.158Z,28.60
2019-04-21T16:23:30.772Z,28.20
2019-04-21T16:27:33.029Z,28.60
2019-04-21T16:31:34.433Z,29.20
2019-04-21T16:35:35.679Z,29.30
2019-04-21T16:39:37.787Z,28.50
2019-04-21T16:43:39.117Z,28.30
2019-04-21T16:47:40.239Z,28.40
2019-04-21T16:51:42.298Z,27.90
2019-04-21T16:55:48.979Z,27.90
2019-04-21T16:59:52.666Z,28.30
2019-04-21T17:03:54.646Z,27.30
2019-04-21T17:07:55.797Z,26.60
2019-04-21T17:11:59.997Z,24.90
2019-04-21T17:16:14.947Z,25.80
2019-04-21T17:20:19.287Z,26.10
2019-04-21T17:24:10.548Z,26.40
2019-04-21T17:28:12.183Z,26.60
2019-04-21T17:32:14.194Z,26.90
2019-04-21T17:36:16.808Z,25.70
2019-04-21T17:40:26.167Z,24.70
2019-04-21T17:44:27.764Z,23.40
2019-04-21T17:48:29.306Z,24.10
2019-04-21T17:52:41.393Z,24.60
2019-04-21T17:57:04.399Z,24.40
2019-04-21T18:01:10.302Z,25.10
2019-04-21T18:05:08.650Z,25.80
2019-04-21T18:09:18.303Z,25.90
2019-04-21T18:12:59.008Z,25.70
2019-04-21T18:16:56.154Z,25.40
2019-04-21T18:21:12.430Z,24.20
2019-04-21T18:25:27.968Z,24.60
2019-04-21T18:29:19.066Z,24.50
2019-04-21T18:33:25.377Z,24.50
2019-04-21T18:37:38.435Z,24.60
2019-04-21T18:41:42.757Z,24.50
2019-04-21T18:46:11.739Z,24.30
2019-04-21T18:49:52.214Z,24.00
2019-04-21T18:54:19.977Z,23.80
2019-04-21T18:57:59.050Z,23.60
2019-04-21T19:02:06.439Z,23.10
2019-04-21T19:06:09.824Z,22.90
2019-04-21T19:10:26.653Z,22.80
2019-04-21T19:14:31.655Z,22.60
2019-04-21T19:22:38.655Z,22.20
2019-04-21T19:26:46.354Z,21.80
2019-04-21T19:30:50.837Z,21.50
2019-04-21T19:34:35.901Z,21.30
2019-04-21T19:38:45.726Z,21.20
2019-04-21T19:42:47.999Z,21.00
2019-04-21T19:46:58.701Z,20.90
2019-04-21T19:51:02.757Z,20.70
2019-04-21T19:54:48.605Z,20.50
2019-04-21T19:58:49.244Z,20.30
2019-04-21T20:02:52.315Z,20.00
2019-04-21T20:07:02.748Z,20.00
2019-04-21T20:11:14.623Z,19.90
2019-04-21T20:15:25.553Z,16.10
2019-04-21T20:19:07.784Z,18.10
2019-04-21T20:23:14.981Z,18.10
2019-04-21T20:27:15.588Z,19.10
2019-04-21T20:31:30.096Z,19.60
2019-04-21T20:35:42.959Z,19.40
2019-04-21T20:39:23.211Z,19.30
2019-04-21T20:43:43.983Z,18.80
2019-04-21T20:47:34.965Z,18.80
2019-04-21T20:51:45.214Z,18.20
2019-04-21T20:55:48.568Z,18.10
2019-04-21T20:59:43.818Z,18.30
2019-04-21T21:03:51.559Z,18.30
2019-04-21T21:08:04.488Z,18.10
2019-04-21T21:12:19.169Z,18.00
2019-04-21T21:16:13.558Z,17.80
2019-04-21T21:20:16.017Z,17.80
2019-04-21T21:24:08.648Z,17.40
2019-04-21T21:28:07.545Z,17.70
2019-04-21T21:32:27.574Z,17.60
2019-04-21T21:36:19.213Z,17.30
2019-04-21T21:40:26.752Z,17.20
2019-04-21T21:44:16.688Z,17.10
2019-04-21T21:48:26.350Z,17.00
2019-04-21T21:52:32.759Z,16.20
2019-04-21T21:56:20.605Z,16.60
2019-04-21T22:00:25.905Z,16.80
2019-04-21T22:04:30.713Z,16.80
2019-04-21T22:08:30.460Z,16.80
2019-04-21T22:12:40.418Z,16.90
2019-04-21T22:16:43.193Z,16.60
2019-04-21T22:20:54.832Z,16.50
2019-04-21T22:24:54.474Z,16.50
2019-04-21T22:28:43.608Z,16.50
2019-04-21T22:32:52.746Z,16.30
2019-04-21T22:36:58.961Z,15.70
2019-04-21T22:41:02.984Z,15.60
2019-04-21T22:44:54.523Z,15.00
2019-04-21T22:48:59.701Z,15.10
2019-04-21T22:53:05.854Z,15.80
2019-04-21T22:57:11.522Z,15.70
2019-04-21T23:01:07.745Z,14.20
2019-04-21T23:05:09.885Z,14.80
2019-04-21T23:09:12.912Z,14.80
2019-04-21T23:13:19.856Z,14.70
2019-04-21T23:17:32.437Z,15.10
2019-04-21T23:21:36.363Z,14.20
2019-04-21T23:25:40.038Z,14.30
2019-04-21T23:29:52.811Z,13.80
2019-04-21T23:33:29.521Z,14.20
2019-04-21T23:37:35.913Z,14.20
2019-04-21T23:41:41.413Z,14.70
2019-04-21T23:45:40.898Z,14.80
2019-04-21T23:49:51.072Z,14.90
2019-04-21T23:53:43.649Z,14.50
2019-04-21T23:57:48.025Z,14.90
